sensor_id;sensor_type;location;lat;lon;timestamp;P1;durP1;ratioP1;P2;durP2;ratioP2
26965;SDS011;14522;52.068;4.414;2023-05-21T00:01:34;4.38;;;2.60;;
26965;SDS011;14522;52.068;4.414;2023-05-21T00:04:00;7.13;;;2.75;;
26965;SDS011;14522;52.068;4.414;2023-05-21T00:06:28;5.63;;;2.10;;
26965;SDS011;14522;52.068;4.414;2023-05-21T00:08:55;6.25;;;2.05;;
26965;SDS011;14522;52.068;4.414;2023-05-21T00:11:21;3.65;;;1.60;;
26965;SDS011;14522;52.068;4.414;2023-05-21T00:13:49;4.13;;;2.33;;
26965;SDS011;14522;52.068;4.414;2023-05-21T00:16:15;1.83;;;1.13;;
26965;SDS011;14522;52.068;4.414;2023-05-21T00:18:42;4.20;;;1.80;;
26965;SDS011;14522;52.068;4.414;2023-05-21T00:21:10;3.75;;;2.05;;
26965;SDS011;14522;52.068;4.414;2023-05-21T00:23:37;5.03;;;1.88;;
26965;SDS011;14522;52.068;4.414;2023-05-21T00:26:04;4.50;;;2.03;;
26965;SDS011;14522;52.068;4.414;2023-05-21T00:28:31;7.05;;;2.15;;
26965;SDS011;14522;52.068;4.414;2023-05-21T00:30:58;2.28;;;1.55;;
26965;SDS011;14522;52.068;4.414;2023-05-21T00:33:24;4.28;;;2.08;;
26965;SDS011;14522;52.068;4.414;2023-05-21T00:35:54;5.18;;;1.90;;
26965;SDS011;14522;52.068;4.414;2023-05-21T00:38:22;8.82;;;2.90;;
26965;SDS011;14522;52.068;4.414;2023-05-21T00:40:49;4.90;;;1.90;;
26965;SDS011;14522;52.068;4.414;2023-05-21T00:43:15;6.53;;;2.03;;
26965;SDS011;14522;52.068;4.414;2023-05-21T00:45:41;8.00;;;2.80;;
26965;SDS011;14522;52.068;4.414;2023-05-21T00:48:12;9.00;;;3.45;;
26965;SDS011;14522;52.068;4.414;2023-05-21T00:50:38;3.67;;;2.08;;
26965;SDS011;14522;52.068;4.414;2023-05-21T00:53:06;5.65;;;1.92;;
26965;SDS011;14522;52.068;4.414;2023-05-21T00:55:38;3.22;;;1.58;;
26965;SDS011;14522;52.068;4.414;2023-05-21T00:58:05;4.28;;;2.13;;
26965;SDS011;14522;52.068;4.414;2023-05-21T01:00:32;3.22;;;1.42;;
26965;SDS011;14522;52.068;4.414;2023-05-21T01:03:02;4.95;;;2.28;;
26965;SDS011;14522;52.068;4.414;2023-05-21T01:05:29;5.25;;;3.05;;
26965;SDS011;14522;52.068;4.414;2023-05-21T01:07:56;3.88;;;1.98;;
26965;SDS011;14522;52.068;4.414;2023-05-21T01:10:23;4.47;;;2.20;;
26965;SDS011;14522;52.068;4.414;2023-05-21T01:12:50;2.72;;;1.90;;
26965;SDS011;14522;52.068;4.414;2023-05-21T01:15:17;5.40;;;2.05;;
26965;SDS011;14522;52.068;4.414;2023-05-21T01:17:44;5.00;;;2.22;;
26965;SDS011;14522;52.068;4.414;2023-05-21T01:20:11;6.75;;;2.20;;
26965;SDS011;14522;52.068;4.414;2023-05-21T01:22:41;6.30;;;2.05;;
26965;SDS011;14522;52.068;4.414;2023-05-21T01:25:09;4.07;;;2.20;;
26965;SDS011;14522;52.068;4.414;2023-05-21T01:27:35;6.45;;;2.13;;
26965;SDS011;14522;52.068;4.414;2023-05-21T01:30:02;3.85;;;2.70;;
26965;SDS011;14522;52.068;4.414;2023-05-21T01:32:32;7.72;;;3.03;;
26965;SDS011;14522;52.068;4.414;2023-05-21T01:35:04;6.40;;;2.47;;
26965;SDS011;14522;52.068;4.414;2023-05-21T01:37:35;5.28;;;2.65;;
26965;SDS011;14522;52.068;4.414;2023-05-21T01:40:21;8.02;;;2.58;;
26965;SDS011;14522;52.068;4.414;2023-05-21T01:42:49;4.55;;;2.53;;
26965;SDS011;14522;52.068;4.414;2023-05-21T01:45:16;5.40;;;2.83;;
26965;SDS011;14522;52.068;4.414;2023-05-21T01:47:46;3.90;;;1.38;;
26965;SDS011;14522;52.068;4.414;2023-05-21T01:50:14;3.65;;;2.42;;
26965;SDS011;14522;52.068;4.414;2023-05-21T01:52:51;5.20;;;1.50;;
26965;SDS011;14522;52.068;4.414;2023-05-21T01:55:18;3.60;;;2.28;;
26965;SDS011;14522;52.068;4.414;2023-05-21T01:57:44;3.97;;;2.00;;
26965;SDS011;14522;52.068;4.414;2023-05-21T02:00:11;6.05;;;2.70;;
26965;SDS011;14522;52.068;4.414;2023-05-21T02:02:38;4.35;;;2.53;;
26965;SDS011;14522;52.068;4.414;2023-05-21T02:05:04;4.80;;;2.60;;
26965;SDS011;14522;52.068;4.414;2023-05-21T02:07:31;2.33;;;1.63;;
26965;SDS011;14522;52.068;4.414;2023-05-21T02:09:58;3.22;;;2.33;;
26965;SDS011;14522;52.068;4.414;2023-05-21T02:12:25;6.20;;;3.13;;
26965;SDS011;14522;52.068;4.414;2023-05-21T02:14:53;6.18;;;2.85;;
26965;SDS011;14522;52.068;4.414;2023-05-21T02:17:21;2.10;;;1.25;;
26965;SDS011;14522;52.068;4.414;2023-05-21T02:19:49;6.43;;;2.30;;
26965;SDS011;14522;52.068;4.414;2023-05-21T02:22:15;4.15;;;2.60;;
26965;SDS011;14522;52.068;4.414;2023-05-21T02:24:42;4.57;;;2.03;;
26965;SDS011;14522;52.068;4.414;2023-05-21T02:27:08;5.53;;;2.97;;
26965;SDS011;14522;52.068;4.414;2023-05-21T02:29:38;7.53;;;2.40;;
26965;SDS011;14522;52.068;4.414;2023-05-21T02:32:05;3.50;;;1.85;;
26965;SDS011;14522;52.068;4.414;2023-05-21T02:34:31;4.78;;;2.38;;
26965;SDS011;14522;52.068;4.414;2023-05-21T02:37:01;4.22;;;2.35;;
26965;SDS011;14522;52.068;4.414;2023-05-21T02:39:28;5.88;;;3.13;;
26965;SDS011;14522;52.068;4.414;2023-05-21T02:41:54;5.82;;;2.53;;
26965;SDS011;14522;52.068;4.414;2023-05-21T02:44:21;5.35;;;2.78;;
26965;SDS011;14522;52.068;4.414;2023-05-21T02:46:49;6.55;;;1.90;;
26965;SDS011;14522;52.068;4.414;2023-05-21T02:49:15;3.95;;;2.38;;
26965;SDS011;14522;52.068;4.414;2023-05-21T02:51:42;8.63;;;2.70;;
26965;SDS011;14522;52.068;4.414;2023-05-21T02:54:08;6.07;;;3.25;;
26965;SDS011;14522;52.068;4.414;2023-05-21T02:56:34;5.50;;;2.53;;
26965;SDS011;14522;52.068;4.414;2023-05-21T02:59:01;8.25;;;3.10;;
26965;SDS011;14522;52.068;4.414;2023-05-21T03:01:27;5.07;;;2.78;;
26965;SDS011;14522;52.068;4.414;2023-05-21T03:03:54;6.43;;;2.70;;
26965;SDS011;14522;52.068;4.414;2023-05-21T03:06:20;3.30;;;2.15;;
26965;SDS011;14522;52.068;4.414;2023-05-21T03:08:47;5.40;;;2.42;;
26965;SDS011;14522;52.068;4.414;2023-05-21T03:11:14;5.90;;;2.67;;
26965;SDS011;14522;52.068;4.414;2023-05-21T03:13:40;5.03;;;3.08;;
26965;SDS011;14522;52.068;4.414;2023-05-21T03:16:08;10.27;;;3.08;;
26965;SDS011;14522;52.068;4.414;2023-05-21T03:18:34;5.15;;;2.90;;
26965;SDS011;14522;52.068;4.414;2023-05-21T03:21:01;4.07;;;2.28;;
26965;SDS011;14522;52.068;4.414;2023-05-21T03:23:27;6.35;;;2.28;;
26965;SDS011;14522;52.068;4.414;2023-05-21T03:25:54;7.72;;;2.85;;
26965;SDS011;14522;52.068;4.414;2023-05-21T03:28:20;3.88;;;2.15;;
26965;SDS011;14522;52.068;4.414;2023-05-21T03:30:47;4.60;;;2.05;;
26965;SDS011;14522;52.068;4.414;2023-05-21T03:33:14;5.03;;;3.10;;
26965;SDS011;14522;52.068;4.414;2023-05-21T03:35:41;6.28;;;3.00;;
26965;SDS011;14522;52.068;4.414;2023-05-21T03:38:08;5.40;;;2.58;;
26965;SDS011;14522;52.068;4.414;2023-05-21T03:40:34;5.82;;;2.60;;
26965;SDS011;14522;52.068;4.414;2023-05-21T03:43:01;8.07;;;2.95;;
26965;SDS011;14522;52.068;4.414;2023-05-21T03:45:27;5.22;;;3.05;;
26965;SDS011;14522;52.068;4.414;2023-05-21T03:47:56;10.85;;;2.88;;
26965;SDS011;14522;52.068;4.414;2023-05-21T03:50:23;4.15;;;2.25;;
26965;SDS011;14522;52.068;4.414;2023-05-21T03:52:49;5.63;;;2.85;;
26965;SDS011;14522;52.068;4.414;2023-05-21T03:55:16;5.15;;;2.95;;
26965;SDS011;14522;52.068;4.414;2023-05-21T03:57:44;4.43;;;2.70;;
26965;SDS011;14522;52.068;4.414;2023-05-21T04:00:10;7.30;;;2.95;;
26965;SDS011;14522;52.068;4.414;2023-05-21T04:02:37;10.57;;;3.20;;
26965;SDS011;14522;52.068;4.414;2023-05-21T04:05:04;5.30;;;3.35;;
26965;SDS011;14522;52.068;4.414;2023-05-21T04:07:30;3.78;;;2.45;;
26965;SDS011;14522;52.068;4.414;2023-05-21T04:09:57;7.05;;;3.00;;
26965;SDS011;14522;52.068;4.414;2023-05-21T04:12:23;3.75;;;2.60;;
26965;SDS011;14522;52.068;4.414;2023-05-21T04:14:50;5.30;;;3.08;;
26965;SDS011;14522;52.068;4.414;2023-05-21T04:17:16;6.43;;;3.22;;
26965;SDS011;14522;52.068;4.414;2023-05-21T04:19:44;9.65;;;3.47;;
26965;SDS011;14522;52.068;4.414;2023-05-21T04:22:10;4.40;;;2.60;;
26965;SDS011;14522;52.068;4.414;2023-05-21T04:24:37;4.32;;;2.67;;
26965;SDS011;14522;52.068;4.414;2023-05-21T04:27:04;4.38;;;3.10;;
26965;SDS011;14522;52.068;4.414;2023-05-21T04:29:31;5.85;;;2.78;;
26965;SDS011;14522;52.068;4.414;2023-05-21T04:31:57;4.80;;;2.90;;
26965;SDS011;14522;52.068;4.414;2023-05-21T04:34:24;6.53;;;3.33;;
26965;SDS011;14522;52.068;4.414;2023-05-21T04:36:50;6.32;;;3.08;;
26965;SDS011;14522;52.068;4.414;2023-05-21T04:39:17;6.60;;;2.67;;
26965;SDS011;14522;52.068;4.414;2023-05-21T04:41:43;5.43;;;3.08;;
26965;SDS011;14522;52.068;4.414;2023-05-21T04:44:10;5.28;;;2.60;;
26965;SDS011;14522;52.068;4.414;2023-05-21T04:46:40;5.65;;;3.60;;
26965;SDS011;14522;52.068;4.414;2023-05-21T04:49:08;6.05;;;3.20;;
26965;SDS011;14522;52.068;4.414;2023-05-21T04:51:35;6.13;;;3.20;;
26965;SDS011;14522;52.068;4.414;2023-05-21T04:54:03;7.15;;;3.08;;
26965;SDS011;14522;52.068;4.414;2023-05-21T04:56:29;5.93;;;3.13;;
26965;SDS011;14522;52.068;4.414;2023-05-21T04:58:57;5.22;;;2.63;;
26965;SDS011;14522;52.068;4.414;2023-05-21T05:01:24;7.82;;;3.17;;
26965;SDS011;14522;52.068;4.414;2023-05-21T05:03:52;6.70;;;3.15;;
26965;SDS011;14522;52.068;4.414;2023-05-21T05:06:19;4.75;;;2.90;;
26965;SDS011;14522;52.068;4.414;2023-05-21T05:08:46;5.65;;;2.80;;
26965;SDS011;14522;52.068;4.414;2023-05-21T05:11:13;6.20;;;2.97;;
26965;SDS011;14522;52.068;4.414;2023-05-21T05:13:39;7.53;;;3.50;;
26965;SDS011;14522;52.068;4.414;2023-05-21T05:16:07;4.30;;;2.83;;
26965;SDS011;14522;52.068;4.414;2023-05-21T05:18:34;7.97;;;2.70;;
26965;SDS011;14522;52.068;4.414;2023-05-21T05:21:00;5.80;;;3.58;;
26965;SDS011;14522;52.068;4.414;2023-05-21T05:23:27;4.63;;;2.67;;
26965;SDS011;14522;52.068;4.414;2023-05-21T05:25:53;7.47;;;3.45;;
26965;SDS011;14522;52.068;4.414;2023-05-21T05:28:21;7.63;;;2.92;;
26965;SDS011;14522;52.068;4.414;2023-05-21T05:30:48;4.88;;;3.15;;
26965;SDS011;14522;52.068;4.414;2023-05-21T05:33:15;9.30;;;3.08;;
26965;SDS011;14522;52.068;4.414;2023-05-21T05:35:41;6.63;;;3.28;;
26965;SDS011;14522;52.068;4.414;2023-05-21T05:38:07;6.82;;;3.00;;
26965;SDS011;14522;52.068;4.414;2023-05-21T05:40:34;6.57;;;3.33;;
26965;SDS011;14522;52.068;4.414;2023-05-21T05:43:00;4.78;;;2.97;;
26965;SDS011;14522;52.068;4.414;2023-05-21T05:45:27;9.48;;;3.38;;
26965;SDS011;14522;52.068;4.414;2023-05-21T05:47:53;6.80;;;3.55;;
26965;SDS011;14522;52.068;4.414;2023-05-21T05:50:20;3.80;;;2.78;;
26965;SDS011;14522;52.068;4.414;2023-05-21T05:52:46;7.45;;;2.95;;
26965;SDS011;14522;52.068;4.414;2023-05-21T05:55:13;4.28;;;2.90;;
26965;SDS011;14522;52.068;4.414;2023-05-21T05:57:39;3.45;;;2.40;;
26965;SDS011;14522;52.068;4.414;2023-05-21T06:00:06;3.50;;;2.67;;
26965;SDS011;14522;52.068;4.414;2023-05-21T06:02:35;5.00;;;2.75;;
26965;SDS011;14522;52.068;4.414;2023-05-21T06:05:02;4.45;;;2.95;;
26965;SDS011;14522;52.068;4.414;2023-05-21T06:07:29;4.55;;;3.08;;
26965;SDS011;14522;52.068;4.414;2023-05-21T06:09:55;6.38;;;3.20;;
26965;SDS011;14522;52.068;4.414;2023-05-21T06:12:22;4.47;;;3.22;;
26965;SDS011;14522;52.068;4.414;2023-05-21T06:14:48;5.72;;;2.90;;
26965;SDS011;14522;52.068;4.414;2023-05-21T06:17:16;5.38;;;2.78;;
26965;SDS011;14522;52.068;4.414;2023-05-21T06:19:42;5.80;;;2.75;;
26965;SDS011;14522;52.068;4.414;2023-05-21T06:22:10;9.38;;;3.95;;
26965;SDS011;14522;52.068;4.414;2023-05-21T06:24:36;4.47;;;2.95;;
26965;SDS011;14522;52.068;4.414;2023-05-21T06:27:03;5.03;;;2.85;;
26965;SDS011;14522;52.068;4.414;2023-05-21T06:29:29;3.75;;;2.60;;
26965;SDS011;14522;52.068;4.414;2023-05-21T06:31:56;4.38;;;2.90;;
26965;SDS011;14522;52.068;4.414;2023-05-21T06:34:22;5.53;;;3.20;;
26965;SDS011;14522;52.068;4.414;2023-05-21T06:36:49;6.38;;;2.65;;
26965;SDS011;14522;52.068;4.414;2023-05-21T06:39:15;4.97;;;3.08;;
26965;SDS011;14522;52.068;4.414;2023-05-21T06:41:42;5.80;;;3.45;;
26965;SDS011;14522;52.068;4.414;2023-05-21T06:44:08;4.82;;;2.67;;
26965;SDS011;14522;52.068;4.414;2023-05-21T06:46:36;7.43;;;3.00;;
26965;SDS011;14522;52.068;4.414;2023-05-21T06:49:02;7.25;;;3.70;;
26965;SDS011;14522;52.068;4.414;2023-05-21T06:51:32;5.55;;;2.63;;
26965;SDS011;14522;52.068;4.414;2023-05-21T06:53:58;6.43;;;3.40;;
26965;SDS011;14522;52.068;4.414;2023-05-21T06:56:25;4.88;;;3.60;;
26965;SDS011;14522;52.068;4.414;2023-05-21T06:58:51;6.30;;;3.42;;
26965;SDS011;14522;52.068;4.414;2023-05-21T07:01:18;6.35;;;3.08;;
26965;SDS011;14522;52.068;4.414;2023-05-21T07:03:44;3.35;;;2.33;;
26965;SDS011;14522;52.068;4.414;2023-05-21T07:06:11;5.72;;;3.30;;
26965;SDS011;14522;52.068;4.414;2023-05-21T07:08:37;7.13;;;3.63;;
26965;SDS011;14522;52.068;4.414;2023-05-21T07:11:04;13.95;;;3.88;;
26965;SDS011;14522;52.068;4.414;2023-05-21T07:13:30;7.47;;;3.70;;
26965;SDS011;14522;52.068;4.414;2023-05-21T07:15:57;4.85;;;3.20;;
26965;SDS011;14522;52.068;4.414;2023-05-21T07:18:23;4.60;;;3.25;;
26965;SDS011;14522;52.068;4.414;2023-05-21T07:20:50;8.35;;;3.83;;
26965;SDS011;14522;52.068;4.414;2023-05-21T07:23:16;6.07;;;3.83;;
26965;SDS011;14522;52.068;4.414;2023-05-21T07:25:43;5.10;;;3.58;;
26965;SDS011;14522;52.068;4.414;2023-05-21T07:28:09;6.15;;;3.50;;
26965;SDS011;14522;52.068;4.414;2023-05-21T07:30:36;5.28;;;3.45;;
26965;SDS011;14522;52.068;4.414;2023-05-21T07:33:02;5.57;;;3.35;;
26965;SDS011;14522;52.068;4.414;2023-05-21T07:35:28;4.88;;;2.97;;
26965;SDS011;14522;52.068;4.414;2023-05-21T07:37:55;7.88;;;3.88;;
26965;SDS011;14522;52.068;4.414;2023-05-21T07:40:21;6.82;;;3.90;;
26965;SDS011;14522;52.068;4.414;2023-05-21T07:42:48;3.85;;;2.28;;
26965;SDS011;14522;52.068;4.414;2023-05-21T07:45:14;6.22;;;3.35;;
26965;SDS011;14522;52.068;4.414;2023-05-21T07:47:41;5.57;;;3.63;;
26965;SDS011;14522;52.068;4.414;2023-05-21T07:50:07;5.80;;;3.55;;
26965;SDS011;14522;52.068;4.414;2023-05-21T07:52:34;6.22;;;3.20;;
26965;SDS011;14522;52.068;4.414;2023-05-21T07:55:01;4.50;;;2.78;;
26965;SDS011;14522;52.068;4.414;2023-05-21T07:57:27;5.55;;;3.38;;
26965;SDS011;14522;52.068;4.414;2023-05-21T07:59:54;11.07;;;4.13;;
26965;SDS011;14522;52.068;4.414;2023-05-21T08:02:21;7.20;;;3.10;;
26965;SDS011;14522;52.068;4.414;2023-05-21T08:04:48;6.18;;;3.17;;
26965;SDS011;14522;52.068;4.414;2023-05-21T08:07:14;4.43;;;3.08;;
26965;SDS011;14522;52.068;4.414;2023-05-21T08:09:44;6.75;;;3.60;;
26965;SDS011;14522;52.068;4.414;2023-05-21T08:12:12;8.27;;;3.85;;
26965;SDS011;14522;52.068;4.414;2023-05-21T08:14:41;4.85;;;3.15;;
26965;SDS011;14522;52.068;4.414;2023-05-21T08:17:08;8.85;;;4.93;;
26965;SDS011;14522;52.068;4.414;2023-05-21T08:19:34;5.10;;;3.13;;
26965;SDS011;14522;52.068;4.414;2023-05-21T08:22:01;6.90;;;3.78;;
26965;SDS011;14522;52.068;4.414;2023-05-21T08:24:28;5.63;;;3.47;;
26965;SDS011;14522;52.068;4.414;2023-05-21T08:26:55;8.13;;;3.97;;
26965;SDS011;14522;52.068;4.414;2023-05-21T08:29:21;7.38;;;3.28;;
26965;SDS011;14522;52.068;4.414;2023-05-21T08:31:47;8.13;;;3.35;;
26965;SDS011;14522;52.068;4.414;2023-05-21T08:34:14;5.60;;;3.38;;
26965;SDS011;14522;52.068;4.414;2023-05-21T08:36:41;6.05;;;3.58;;
26965;SDS011;14522;52.068;4.414;2023-05-21T08:39:12;3.72;;;2.83;;
26965;SDS011;14522;52.068;4.414;2023-05-21T08:41:38;6.65;;;3.67;;
26965;SDS011;14522;52.068;4.414;2023-05-21T08:44:08;8.25;;;4.88;;
26965;SDS011;14522;52.068;4.414;2023-05-21T08:46:36;8.90;;;3.83;;
26965;SDS011;14522;52.068;4.414;2023-05-21T08:49:05;7.05;;;3.63;;
26965;SDS011;14522;52.068;4.414;2023-05-21T08:51:36;7.97;;;3.40;;
26965;SDS011;14522;52.068;4.414;2023-05-21T08:54:03;4.57;;;2.88;;
26965;SDS011;14522;52.068;4.414;2023-05-21T08:56:30;7.75;;;3.30;;
26965;SDS011;14522;52.068;4.414;2023-05-21T08:58:57;5.43;;;3.60;;
26965;SDS011;14522;52.068;4.414;2023-05-21T09:01:24;5.82;;;3.65;;
26965;SDS011;14522;52.068;4.414;2023-05-21T09:03:52;4.63;;;2.55;;
26965;SDS011;14522;52.068;4.414;2023-05-21T09:06:33;6.90;;;3.65;;
26965;SDS011;14522;52.068;4.414;2023-05-21T09:09:01;8.60;;;4.00;;
26965;SDS011;14522;52.068;4.414;2023-05-21T09:11:29;5.80;;;3.88;;
26965;SDS011;14522;52.068;4.414;2023-05-21T09:13:56;4.97;;;3.08;;
26965;SDS011;14522;52.068;4.414;2023-05-21T09:16:23;6.93;;;4.00;;
26965;SDS011;14522;52.068;4.414;2023-05-21T09:18:49;7.68;;;3.72;;
26965;SDS011;14522;52.068;4.414;2023-05-21T09:21:34;5.95;;;3.97;;
26965;SDS011;14522;52.068;4.414;2023-05-21T09:24:00;8.88;;;3.70;;
26965;SDS011;14522;52.068;4.414;2023-05-21T09:26:27;9.00;;;4.07;;
26965;SDS011;14522;52.068;4.414;2023-05-21T09:28:58;5.32;;;3.08;;
26965;SDS011;14522;52.068;4.414;2023-05-21T09:31:24;6.53;;;3.78;;
26965;SDS011;14522;52.068;4.414;2023-05-21T09:33:52;5.20;;;3.42;;
26965;SDS011;14522;52.068;4.414;2023-05-21T09:36:20;6.50;;;3.40;;
26965;SDS011;14522;52.068;4.414;2023-05-21T09:38:47;6.03;;;2.88;;
26965;SDS011;14522;52.068;4.414;2023-05-21T09:41:13;5.97;;;3.92;;
26965;SDS011;14522;52.068;4.414;2023-05-21T09:43:45;7.10;;;3.60;;
26965;SDS011;14522;52.068;4.414;2023-05-21T09:46:11;5.18;;;3.60;;
26965;SDS011;14522;52.068;4.414;2023-05-21T09:48:38;4.15;;;3.03;;
26965;SDS011;14522;52.068;4.414;2023-05-21T09:51:09;7.13;;;3.63;;
26965;SDS011;14522;52.068;4.414;2023-05-21T09:53:41;6.57;;;3.75;;
26965;SDS011;14522;52.068;4.414;2023-05-21T09:56:07;6.18;;;3.15;;
26965;SDS011;14522;52.068;4.414;2023-05-21T09:58:34;5.43;;;3.85;;
26965;SDS011;14522;52.068;4.414;2023-05-21T10:01:01;6.00;;;3.97;;
26965;SDS011;14522;52.068;4.414;2023-05-21T10:03:28;8.10;;;4.55;;
26965;SDS011;14522;52.068;4.414;2023-05-21T10:05:57;5.72;;;4.32;;
26965;SDS011;14522;52.068;4.414;2023-05-21T10:08:25;6.28;;;3.30;;
26965;SDS011;14522;52.068;4.414;2023-05-21T10:10:51;6.97;;;3.30;;
26965;SDS011;14522;52.068;4.414;2023-05-21T10:13:19;6.53;;;3.58;;
26965;SDS011;14522;52.068;4.414;2023-05-21T10:15:47;4.80;;;3.05;;
26965;SDS011;14522;52.068;4.414;2023-05-21T10:18:16;7.63;;;3.38;;
26965;SDS011;14522;52.068;4.414;2023-05-21T10:20:44;6.43;;;3.15;;
26965;SDS011;14522;52.068;4.414;2023-05-21T10:23:11;6.32;;;3.80;;
26965;SDS011;14522;52.068;4.414;2023-05-21T10:25:38;10.02;;;4.50;;
26965;SDS011;14522;52.068;4.414;2023-05-21T10:28:05;5.38;;;3.78;;
26965;SDS011;14522;52.068;4.414;2023-05-21T10:30:32;5.57;;;3.60;;
26965;SDS011;14522;52.068;4.414;2023-05-21T10:32:59;10.95;;;5.30;;
26965;SDS011;14522;52.068;4.414;2023-05-21T10:35:27;7.35;;;3.42;;
26965;SDS011;14522;52.068;4.414;2023-05-21T10:37:54;6.90;;;3.53;;
26965;SDS011;14522;52.068;4.414;2023-05-21T10:40:21;7.95;;;4.60;;
26965;SDS011;14522;52.068;4.414;2023-05-21T10:43:04;7.22;;;3.83;;
26965;SDS011;14522;52.068;4.414;2023-05-21T10:48:41;6.47;;;3.78;;
26965;SDS011;14522;52.068;4.414;2023-05-21T10:51:28;7.63;;;4.03;;
26965;SDS011;14522;52.068;4.414;2023-05-21T10:59:38;6.35;;;3.92;;
26965;SDS011;14522;52.068;4.414;2023-05-21T11:02:06;7.07;;;3.67;;
26965;SDS011;14522;52.068;4.414;2023-05-21T11:04:33;6.85;;;2.90;;
26965;SDS011;14522;52.068;4.414;2023-05-21T11:07:04;12.02;;;3.17;;
26965;SDS011;14522;52.068;4.414;2023-05-21T11:09:31;8.90;;;3.63;;
26965;SDS011;14522;52.068;4.414;2023-05-21T11:11:58;10.27;;;3.20;;
26965;SDS011;14522;52.068;4.414;2023-05-21T11:14:40;10.63;;;3.58;;
26965;SDS011;14522;52.068;4.414;2023-05-21T11:17:14;9.60;;;3.40;;
26965;SDS011;14522;52.068;4.414;2023-05-21T11:19:42;8.27;;;3.40;;
26965;SDS011;14522;52.068;4.414;2023-05-21T11:24:36;10.25;;;3.88;;
26965;SDS011;14522;52.068;4.414;2023-05-21T11:27:04;9.05;;;3.63;;
26965;SDS011;14522;52.068;4.414;2023-05-21T11:29:35;9.88;;;4.43;;
26965;SDS011;14522;52.068;4.414;2023-05-21T11:32:06;9.88;;;3.22;;
26965;SDS011;14522;52.068;4.414;2023-05-21T11:34:37;9.32;;;3.80;;
26965;SDS011;14522;52.068;4.414;2023-05-21T11:39:48;8.15;;;3.88;;
26965;SDS011;14522;52.068;4.414;2023-05-21T11:42:49;9.48;;;4.32;;
26965;SDS011;14522;52.068;4.414;2023-05-21T11:45:09;12.75;;;3.47;;
26965;SDS011;14522;52.068;4.414;2023-05-21T11:47:36;12.10;;;4.38;;
26965;SDS011;14522;52.068;4.414;2023-05-21T11:50:02;10.77;;;3.85;;
26965;SDS011;14522;52.068;4.414;2023-05-21T11:52:29;15.18;;;3.35;;
26965;SDS011;14522;52.068;4.414;2023-05-21T11:54:56;11.63;;;3.80;;
26965;SDS011;14522;52.068;4.414;2023-05-21T11:57:24;15.65;;;4.10;;
26965;SDS011;14522;52.068;4.414;2023-05-21T11:59:51;7.45;;;3.58;;
26965;SDS011;14522;52.068;4.414;2023-05-21T12:02:19;6.22;;;2.83;;
26965;SDS011;14522;52.068;4.414;2023-05-21T12:04:46;11.18;;;3.30;;
26965;SDS011;14522;52.068;4.414;2023-05-21T12:07:14;12.35;;;3.92;;
26965;SDS011;14522;52.068;4.414;2023-05-21T12:09:41;9.90;;;3.80;;
26965;SDS011;14522;52.068;4.414;2023-05-21T12:12:08;17.15;;;4.43;;
26965;SDS011;14522;52.068;4.414;2023-05-21T12:14:35;9.23;;;2.97;;
26965;SDS011;14522;52.068;4.414;2023-05-21T12:17:02;11.15;;;3.40;;
26965;SDS011;14522;52.068;4.414;2023-05-21T12:19:32;17.25;;;4.20;;
26965;SDS011;14522;52.068;4.414;2023-05-21T12:22:02;13.02;;;4.00;;
26965;SDS011;14522;52.068;4.414;2023-05-21T12:24:29;14.07;;;3.35;;
26965;SDS011;14522;52.068;4.414;2023-05-21T12:26:56;12.27;;;3.20;;
26965;SDS011;14522;52.068;4.414;2023-05-21T12:29:30;11.23;;;3.15;;
26965;SDS011;14522;52.068;4.414;2023-05-21T12:31:59;9.75;;;3.00;;
26965;SDS011;14522;52.068;4.414;2023-05-21T12:37:23;14.23;;;3.30;;
26965;SDS011;14522;52.068;4.414;2023-05-21T12:39:54;11.27;;;3.08;;
26965;SDS011;14522;52.068;4.414;2023-05-21T12:42:27;11.07;;;3.28;;
26965;SDS011;14522;52.068;4.414;2023-05-21T12:44:56;10.80;;;3.07;;
26965;SDS011;14522;52.068;4.414;2023-05-21T12:47:23;11.50;;;2.83;;
26965;SDS011;14522;52.068;4.414;2023-05-21T12:49:57;20.95;;;3.65;;
26965;SDS011;14522;52.068;4.414;2023-05-21T12:52:24;10.73;;;3.47;;
26965;SDS011;14522;52.068;4.414;2023-05-21T12:54:56;16.48;;;3.42;;
26965;SDS011;14522;52.068;4.414;2023-05-21T12:57:35;12.63;;;3.65;;
26965;SDS011;14522;52.068;4.414;2023-05-21T13:00:04;11.85;;;2.70;;
26965;SDS011;14522;52.068;4.414;2023-05-21T13:02:42;7.10;;;2.95;;
26965;SDS011;14522;52.068;4.414;2023-05-21T13:05:10;13.55;;;3.30;;
26965;SDS011;14522;52.068;4.414;2023-05-21T13:07:37;9.23;;;2.75;;
26965;SDS011;14522;52.068;4.414;2023-05-21T13:10:05;14.95;;;3.17;;
26965;SDS011;14522;52.068;4.414;2023-05-21T13:12:32;21.23;;;3.47;;
26965;SDS011;14522;52.068;4.414;2023-05-21T13:14:59;13.35;;;3.13;;
26965;SDS011;14522;52.068;4.414;2023-05-21T13:17:26;10.73;;;3.53;;
26965;SDS011;14522;52.068;4.414;2023-05-21T13:22:35;12.90;;;2.92;;
26965;SDS011;14522;52.068;4.414;2023-05-21T13:25:04;14.63;;;3.70;;
26965;SDS011;14522;52.068;4.414;2023-05-21T13:27:31;10.80;;;2.88;;
26965;SDS011;14522;52.068;4.414;2023-05-21T13:29:57;8.75;;;3.08;;
26965;SDS011;14522;52.068;4.414;2023-05-21T13:32:23;11.02;;;3.33;;
26965;SDS011;14522;52.068;4.414;2023-05-21T13:34:50;11.32;;;3.00;;
26965;SDS011;14522;52.068;4.414;2023-05-21T13:37:16;8.95;;;2.65;;
26965;SDS011;14522;52.068;4.414;2023-05-21T13:39:43;6.55;;;3.03;;
26965;SDS011;14522;52.068;4.414;2023-05-21T13:42:09;16.35;;;3.17;;
26965;SDS011;14522;52.068;4.414;2023-05-21T13:44:36;8.20;;;3.20;;
26965;SDS011;14522;52.068;4.414;2023-05-21T13:47:03;8.77;;;3.28;;
26965;SDS011;14522;52.068;4.414;2023-05-21T13:49:29;9.95;;;3.05;;
26965;SDS011;14522;52.068;4.414;2023-05-21T13:51:56;11.52;;;3.05;;
26965;SDS011;14522;52.068;4.414;2023-05-21T13:54:23;9.95;;;3.35;;
26965;SDS011;14522;52.068;4.414;2023-05-21T13:56:49;15.60;;;3.00;;
26965;SDS011;14522;52.068;4.414;2023-05-21T13:59:16;9.88;;;2.95;;
26965;SDS011;14522;52.068;4.414;2023-05-21T14:01:42;11.88;;;4.78;;
26965;SDS011;14522;52.068;4.414;2023-05-21T14:04:12;9.93;;;2.85;;
26965;SDS011;14522;52.068;4.414;2023-05-21T14:06:39;12.30;;;3.45;;
26965;SDS011;14522;52.068;4.414;2023-05-21T14:09:06;13.55;;;3.30;;
26965;SDS011;14522;52.068;4.414;2023-05-21T14:11:32;11.48;;;2.85;;
26965;SDS011;14522;52.068;4.414;2023-05-21T14:13:59;13.75;;;3.20;;
26965;SDS011;14522;52.068;4.414;2023-05-21T14:16:26;13.43;;;3.78;;
26965;SDS011;14522;52.068;4.414;2023-05-21T14:18:53;12.13;;;3.63;;
26965;SDS011;14522;52.068;4.414;2023-05-21T14:21:19;14.15;;;2.90;;
26965;SDS011;14522;52.068;4.414;2023-05-21T14:23:46;11.55;;;2.65;;
26965;SDS011;14522;52.068;4.414;2023-05-21T14:26:13;10.88;;;2.75;;
26965;SDS011;14522;52.068;4.414;2023-05-21T14:28:40;12.75;;;3.72;;
26965;SDS011;14522;52.068;4.414;2023-05-21T14:31:06;8.60;;;3.03;;
26965;SDS011;14522;52.068;4.414;2023-05-21T14:33:34;8.40;;;3.03;;
26965;SDS011;14522;52.068;4.414;2023-05-21T14:36:01;11.25;;;3.63;;
26965;SDS011;14522;52.068;4.414;2023-05-21T14:38:27;9.77;;;3.50;;
26965;SDS011;14522;52.068;4.414;2023-05-21T14:40:54;12.82;;;3.30;;
26965;SDS011;14522;52.068;4.414;2023-05-21T14:43:21;10.15;;;3.17;;
26965;SDS011;14522;52.068;4.414;2023-05-21T14:45:48;12.20;;;3.25;;
26965;SDS011;14522;52.068;4.414;2023-05-21T14:48:17;9.63;;;3.00;;
26965;SDS011;14522;52.068;4.414;2023-05-21T14:50:48;12.07;;;4.03;;
26965;SDS011;14522;52.068;4.414;2023-05-21T14:53:15;13.32;;;3.97;;
26965;SDS011;14522;52.068;4.414;2023-05-21T14:55:41;10.95;;;3.53;;
26965;SDS011;14522;52.068;4.414;2023-05-21T14:58:08;20.05;;;4.18;;
26965;SDS011;14522;52.068;4.414;2023-05-21T15:00:35;17.33;;;5.40;;
26965;SDS011;14522;52.068;4.414;2023-05-21T15:03:01;7.70;;;3.45;;
26965;SDS011;14522;52.068;4.414;2023-05-21T15:05:28;12.35;;;3.05;;
26965;SDS011;14522;52.068;4.414;2023-05-21T15:07:55;16.33;;;3.88;;